Oakland, CA (94601)

5:14 PM PDT on September 01, 2014 (GMT -0700)
ALLENDALE | Change Station
CLOSE
Current Station
Personal Weather Station
Location: Oakland, CA
Elevation: 141 ft
Nearby Weather Stations

Elev 141 ft 37.79 °N, 122.20 °W | Updated 13 minutes ago

Clear
Clear
86.2 °F
Feels Like 85 °F
N
3.7
Wind Variable Wind from NNW

Today
High -- | Low -- °F
--% Chance of Precip.
Yesterday
High -- | Low -- °F
Precip. -- in
6:39 AM 7:37 PM
Waxing Crescent, 45% visible
Pressure 29.77 in
Visibility 10.0 miles
Clouds Clear
Heat Index 85 °F
Dew Point 54 °F
Humidity 34%
Rainfall 0.00 in
Snow Depth Not available.
UV 3 out of 12
Pollen 8.40 out of 12
Ozone Good
PM2.5 Moderate
Flu Activity Not available.
METAR KOAK 012353Z 29010KT 10SM CLR 27/14 A2977 RMK AO2 SLP081 T02670139 10283 20217 56013

More Conditions Fewer Conditions

Pressure 29.77 in
Visibility 10.0 miles
Clouds Clear
Heat Index 85 °F
Dew Point 54 °F
Humidity 34%
Rainfall 0.00 in
Snow Depth Not available.
UV 3 out of 12
Pollen 8.40 out of 12
Ozone Good
PM2.5 Moderate
Flu Activity Not available.
METAR KOAK 012353Z 29010KT 10SM CLR 27/14 A2977 RMK AO2 SLP081 T02670139 10283 20217 56013

More Conditions Fewer Conditions

10-Day Weather Forecast

Almanac

Astronomy

Sep. 01, 2014 Rise Set
Actual Time 6:39 AM PDT 7:37 PM PDT
Civil Twilight 6:12 AM PDT 8:04 PM PDT
Nautical Twilight 5:40 AM PDT 8:36 PM PDT
Astronomical Twilight 5:07 AM PDT 9:09 PM PDT
Moon 1:22 PM PDT (9/1) 11:51 PM PDT (9/1)
Length of Visible Light 13h 52m
Length of Day
12h 58m
Tomorrow will be 2m 20s shorter.
Waxing Crescent, 45% of the Moon is Illuminated
Today
Waxing Crescent
Sep 2
First Quarter
Sep 8
Full
Sep 15
Last Quarter
Sep 24
New

Today's Extremes

State Highs State Lows

Community

WunderPhotos

Upload Photos

1,749,443 photos uploaded!

Nearby

Air Quality

  Air Quality AQ Index Pollutant
Yesterday Good
PM2.5
Yesterday Good
OZONE
Current Moderate
PM2.5
Current Good
OZONE
Monday Good
PM2.5
Tuesday Good
PM2.5
Wednesday Good
PM2.5
Thursday Good
PM2.5
Friday Good
PM2.5

Snow Depth

Station Depth Elevation
CSS Lab 0 in 6900 ft
Leavitt Meadows 0 in 7200 ft
Monitor Pass 0 in 8350 ft
Adin Mountain 0 in 6200 ft

Earthquake Activity

City Distance Mag. Time & Date
Yountville, California 41 miles 2.6 1:15 PM PDT
2014-09-01
Gilroy, California 68 miles 3.5 9:10 AM PDT
2014-09-01
Green Valley, California 32 miles 2.5 6:37 AM PDT
2014-08-31
Napa, California 32 miles 3.2 1:56 AM PDT
2014-08-31
Minimum magnitude displayed is 2.5.

Coastal Water Temperatures

Place Temperature
No Stations Reporting

Nearby Weather Stations